createdAt,value
2023-04-21T00:00:50.769Z,1060.00
2023-04-21T00:01:50.817Z,1048.00
2023-04-21T00:02:51.050Z,1059.00
2023-04-21T00:03:51.086Z,1055.00
2023-04-21T00:04:51.111Z,1048.00
2023-04-21T00:05:51.166Z,1058.00
2023-04-21T00:06:51.035Z,1052.00
2023-04-21T00:07:51.083Z,1048.00
2023-04-21T00:08:51.199Z,1049.00
2023-04-21T00:09:51.199Z,1042.00
2023-04-21T00:10:51.266Z,1047.00
2023-04-21T00:11:51.313Z,1039.00
2023-04-21T00:12:51.362Z,1048.00
2023-04-21T00:13:51.403Z,1038.00
2023-04-21T00:14:51.458Z,1038.00
2023-04-21T00:15:51.608Z,1040.00
2023-04-21T00:16:51.545Z,1043.00
2023-04-21T00:17:51.638Z,1052.00
2023-04-21T00:18:51.657Z,1036.00
2023-04-21T00:19:51.737Z,1042.00
2023-04-21T00:20:51.767Z,1034.00
2023-04-21T00:21:52.581Z,1050.00
2023-04-21T00:22:51.887Z,1041.00
2023-04-21T00:23:51.952Z,1042.00
2023-04-21T00:24:51.976Z,1041.00
2023-04-21T00:25:52.035Z,1044.00
2023-04-21T00:26:52.074Z,1027.00
2023-04-21T00:27:52.159Z,1027.00
2023-04-21T00:28:52.198Z,1021.00
2023-04-21T00:29:52.262Z,1019.00
2023-04-21T00:30:52.298Z,1030.00
2023-04-21T00:31:52.339Z,1035.00
2023-04-21T00:32:52.439Z,1021.00
2023-04-21T00:33:52.433Z,1025.00
2023-04-21T00:34:52.463Z,1025.00
2023-04-21T00:35:52.515Z,1021.00
2023-04-21T00:36:52.547Z,1027.00
2023-04-21T00:37:52.620Z,1026.00
2023-04-21T00:38:52.643Z,1021.00
2023-04-21T00:39:52.744Z,1015.00
2023-04-21T00:40:52.738Z,1031.00
2023-04-21T00:41:58.059Z,1015.00
2023-04-21T00:42:52.777Z,1016.00
2023-04-21T00:43:52.781Z,1018.00
2023-04-21T00:44:52.742Z,1021.00
2023-04-21T00:45:52.823Z,1017.00
2023-04-21T00:46:52.858Z,1024.00
2023-04-21T00:47:52.984Z,1017.00
2023-04-21T00:48:52.920Z,1016.00
2023-04-21T00:49:52.996Z,1011.00
2023-04-21T00:50:53.032Z,1013.00
2023-04-21T00:51:53.059Z,1007.00
2023-04-21T00:52:53.125Z,1013.00
2023-04-21T00:53:53.153Z,1022.00
2023-04-21T00:54:53.241Z,1011.00
2023-04-21T00:55:53.253Z,1021.00
2023-04-21T00:56:53.316Z,1003.00
2023-04-21T00:57:53.369Z,996.00
2023-04-21T00:58:53.400Z,996.00
2023-04-21T00:59:53.425Z,1004.00
2023-04-21T01:00:53.524Z,998.00
2023-04-21T01:01:53.526Z,992.00
2023-04-21T01:02:53.642Z,1003.00
2023-04-21T01:03:53.782Z,1006.00
2023-04-21T01:04:53.594Z,1008.00
2023-04-21T01:05:53.674Z,1008.00
2023-04-21T01:06:53.734Z,989.00
2023-04-21T01:07:53.762Z,994.00
2023-04-21T01:08:53.821Z,995.00
2023-04-21T01:09:53.853Z,990.00
2023-04-21T01:10:53.928Z,992.00
2023-04-21T01:11:53.973Z,982.00
2023-04-21T01:12:54.037Z,984.00
2023-04-21T01:13:54.089Z,980.00
2023-04-21T01:14:54.153Z,986.00
2023-04-21T01:15:54.161Z,989.00
2023-04-21T01:16:54.300Z,978.00
2023-04-21T01:17:54.384Z,988.00
2023-04-21T01:18:54.312Z,992.00
2023-04-21T01:19:54.348Z,1011.00
2023-04-21T01:20:54.395Z,975.00
2023-04-21T01:21:54.422Z,987.00
2023-04-21T01:22:54.476Z,981.00
2023-04-21T01:23:54.541Z,991.00
2023-04-21T01:24:54.549Z,979.00
2023-04-21T01:25:54.626Z,978.00
2023-04-21T01:26:54.638Z,984.00
2023-04-21T01:27:54.706Z,984.00
2023-04-21T01:28:54.769Z,967.00
2023-04-21T01:29:54.795Z,974.00
2023-04-21T01:30:54.875Z,982.00
2023-04-21T01:31:54.922Z,960.00
2023-04-21T01:32:54.897Z,981.00
2023-04-21T01:33:54.925Z,980.00
2023-04-21T01:34:55.016Z,978.00
2023-04-21T01:35:55.024Z,965.00
2023-04-21T01:36:55.063Z,970.00
2023-04-21T01:37:55.096Z,984.00
2023-04-21T01:38:55.157Z,977.00
2023-04-21T01:39:55.219Z,972.00
2023-04-21T01:40:55.240Z,972.00
2023-04-21T01:41:55.276Z,972.00
2023-04-21T01:42:55.352Z,967.00
2023-04-21T01:43:55.404Z,973.00
2023-04-21T01:44:55.511Z,970.00
2023-04-21T01:45:55.571Z,965.00
2023-04-21T01:46:55.545Z,970.00
2023-04-21T01:47:55.661Z,986.00
2023-04-21T01:48:55.646Z,957.00
2023-04-21T01:49:55.704Z,976.00
2023-04-21T01:50:55.766Z,964.00
2023-04-21T01:51:55.817Z,967.00
2023-04-21T01:52:55.870Z,957.00
2023-04-21T01:53:55.912Z,958.00
2023-04-21T01:54:55.943Z,962.00
2023-04-21T01:55:56.005Z,971.00
2023-04-21T01:56:56.156Z,955.00
2023-04-21T01:57:56.075Z,952.00
2023-04-21T01:58:56.102Z,959.00
2023-04-21T01:59:56.178Z,961.00
2023-04-21T02:00:56.275Z,946.00
2023-04-21T02:01:56.396Z,946.00
2023-04-21T02:02:56.441Z,957.00
2023-04-21T02:03:56.401Z,961.00
2023-04-21T02:04:56.458Z,943.00
2023-04-21T02:05:56.500Z,940.00
2023-04-21T02:06:56.494Z,958.00
2023-04-21T02:07:56.464Z,961.00
2023-04-21T02:08:56.508Z,951.00
2023-04-21T02:09:56.586Z,944.00
2023-04-21T02:10:56.613Z,945.00
2023-04-21T02:11:56.650Z,941.00
2023-04-21T02:12:56.647Z,951.00
2023-04-21T02:13:56.709Z,947.00
2023-04-21T02:14:56.757Z,941.00
2023-04-21T02:16:09.524Z,943.00
2023-04-21T02:16:57.802Z,944.00
2023-04-21T02:17:56.856Z,944.00
2023-04-21T02:18:56.827Z,945.00
2023-04-21T02:19:56.789Z,943.00
2023-04-21T02:20:56.793Z,940.00
2023-04-21T02:21:56.770Z,945.00
2023-04-21T02:22:56.780Z,942.00
2023-04-21T02:23:56.729Z,937.00
2023-04-21T02:24:56.736Z,941.00
2023-04-21T02:25:56.745Z,943.00
2023-04-21T02:26:56.792Z,922.00
2023-04-21T02:27:56.967Z,921.00
2023-04-21T02:28:56.877Z,932.00
2023-04-21T02:29:56.934Z,942.00
2023-04-21T02:30:57.012Z,929.00
2023-04-21T02:32:02.949Z,937.00
2023-04-21T02:32:58.033Z,938.00
2023-04-21T02:33:57.001Z,938.00
2023-04-21T02:34:57.005Z,939.00
2023-04-21T02:35:57.020Z,931.00
2023-04-21T02:36:56.996Z,938.00
2023-04-21T02:37:56.981Z,926.00
2023-04-21T02:38:56.990Z,923.00
2023-04-21T02:39:56.948Z,929.00
2023-04-21T02:40:56.938Z,946.00
2023-04-21T02:41:56.955Z,929.00
2023-04-21T02:42:57.024Z,925.00
2023-04-21T02:43:57.061Z,926.00
2023-04-21T02:44:57.126Z,927.00
2023-04-21T02:45:57.165Z,934.00
2023-04-21T02:46:57.218Z,925.00
2023-04-21T02:47:57.320Z,925.00
2023-04-21T02:48:57.307Z,919.00
2023-04-21T02:49:57.333Z,940.00
2023-04-21T02:50:57.420Z,920.00
2023-04-21T02:51:57.450Z,934.00
2023-04-21T02:52:57.491Z,913.00
2023-04-21T02:53:57.551Z,914.00
2023-04-21T02:54:57.572Z,920.00
2023-04-21T02:55:57.615Z,911.00
2023-04-21T02:56:57.657Z,920.00
2023-04-21T02:57:57.709Z,915.00
2023-04-21T02:58:57.750Z,918.00
2023-04-21T02:59:57.826Z,923.00
2023-04-21T03:00:57.884Z,914.00
2023-04-21T03:01:57.925Z,911.00
2023-04-21T03:02:58.183Z,912.00
2023-04-21T03:03:58.193Z,908.00
2023-04-21T03:04:58.106Z,904.00
2023-04-21T03:05:58.143Z,913.00
2023-04-21T03:06:58.206Z,902.00
2023-04-21T03:07:58.247Z,907.00
2023-04-21T03:08:58.278Z,917.00
2023-04-21T03:09:58.295Z,919.00
2023-04-21T03:10:58.384Z,913.00
2023-04-21T03:11:58.433Z,911.00
2023-04-21T03:12:58.479Z,915.00
2023-04-21T03:13:58.549Z,907.00
2023-04-21T03:14:58.562Z,906.00
2023-04-21T03:15:58.653Z,897.00
2023-04-21T03:16:58.706Z,911.00
2023-04-21T03:17:58.773Z,906.00
2023-04-21T03:18:58.737Z,904.00
2023-04-21T03:19:58.814Z,918.00
2023-04-21T03:20:58.855Z,903.00
2023-04-21T03:21:58.921Z,900.00
2023-04-21T03:22:58.984Z,921.00
2023-04-21T03:23:59.012Z,900.00
2023-04-21T03:24:59.089Z,909.00
2023-04-21T03:25:59.152Z,908.00
2023-04-21T03:26:59.186Z,895.00
2023-04-21T03:27:59.248Z,899.00
2023-04-21T03:28:59.283Z,894.00
2023-04-21T03:29:59.336Z,895.00
2023-04-21T03:30:59.350Z,893.00
2023-04-21T03:31:59.497Z,903.00
2023-04-21T03:32:59.464Z,883.00
2023-04-21T03:33:59.546Z,889.00
2023-04-21T03:34:59.581Z,901.00
2023-04-21T03:35:59.620Z,890.00
2023-04-21T03:36:59.667Z,899.00
2023-04-21T03:38:00.880Z,893.00
2023-04-21T03:39:12.676Z,899.00
2023-04-21T03:40:00.784Z,900.00
2023-04-21T03:40:59.766Z,900.00
2023-04-21T03:41:59.787Z,883.00
2023-04-21T03:42:59.758Z,900.00
2023-04-21T03:43:59.736Z,886.00
2023-04-21T03:44:59.741Z,882.00
2023-04-21T03:45:59.755Z,881.00
2023-04-21T03:46:59.704Z,873.00
2023-04-21T03:47:59.785Z,890.00
2023-04-21T03:49:01.231Z,882.00
2023-04-21T03:49:59.773Z,890.00
2023-04-21T03:50:59.747Z,876.00
2023-04-21T03:51:59.759Z,885.00
2023-04-21T03:52:59.751Z,889.00
2023-04-21T03:53:59.780Z,883.00
2023-04-21T03:54:59.773Z,882.00
2023-04-21T03:55:59.723Z,892.00
2023-04-21T03:56:59.727Z,892.00
2023-04-21T03:57:59.718Z,889.00
2023-04-21T03:58:59.702Z,892.00
2023-04-21T03:59:59.695Z,886.00
2023-04-21T04:00:59.674Z,872.00
2023-04-21T04:01:59.766Z,865.00
2023-04-21T04:02:59.839Z,878.00
2023-04-21T04:03:59.839Z,875.00
2023-04-21T04:04:59.845Z,898.00
2023-04-21T04:05:59.671Z,879.00
2023-04-21T04:06:59.657Z,882.00
2023-04-21T04:07:59.655Z,885.00
2023-04-21T04:08:59.650Z,876.00
2023-04-21T04:09:59.673Z,879.00
2023-04-21T04:10:59.617Z,877.00
2023-04-21T04:11:59.612Z,879.00
2023-04-21T04:12:59.598Z,877.00
2023-04-21T04:13:59.592Z,878.00
2023-04-21T04:14:59.562Z,873.00
2023-04-21T04:15:59.627Z,866.00
2023-04-21T04:16:59.622Z,868.00
2023-04-21T04:17:59.591Z,864.00
2023-04-21T04:18:59.564Z,868.00
2023-04-21T04:19:59.575Z,879.00
2023-04-21T04:20:59.535Z,881.00
2023-04-21T04:21:59.551Z,866.00
2023-04-21T04:22:59.493Z,862.00
2023-04-21T04:23:59.526Z,870.00
2023-04-21T04:24:59.506Z,861.00
2023-04-21T04:25:59.509Z,871.00
2023-04-21T04:26:59.514Z,858.00
2023-04-21T04:27:59.473Z,866.00
2023-04-21T04:28:59.486Z,873.00
2023-04-21T04:29:59.447Z,861.00
2023-04-21T04:30:59.525Z,869.00
2023-04-21T04:31:59.468Z,861.00
2023-04-21T04:32:59.501Z,872.00
2023-04-21T04:33:59.533Z,854.00
2023-04-21T04:34:59.563Z,871.00
2023-04-21T04:35:59.640Z,867.00
2023-04-21T04:36:59.699Z,849.00
2023-04-21T04:37:59.776Z,855.00
2023-04-21T04:38:59.771Z,850.00
2023-04-21T04:39:59.819Z,866.00
2023-04-21T04:40:59.884Z,867.00
2023-04-21T04:41:59.934Z,855.00
2023-04-21T04:42:59.981Z,853.00
2023-04-21T04:44:00.850Z,860.00
2023-04-21T04:45:00.052Z,863.00
2023-04-21T04:46:00.113Z,858.00
2023-04-21T04:47:00.339Z,840.00
2023-04-21T04:48:00.229Z,847.00
2023-04-21T04:49:00.262Z,846.00
2023-04-21T04:50:00.311Z,853.00
2023-04-21T04:51:00.355Z,841.00
2023-04-21T04:52:00.384Z,851.00
2023-04-21T04:53:00.415Z,842.00
2023-04-21T04:54:00.458Z,858.00
2023-04-21T04:55:00.477Z,854.00
2023-04-21T04:56:00.563Z,839.00
2023-04-21T04:57:00.561Z,839.00
2023-04-21T04:58:00.636Z,845.00
2023-04-21T04:59:00.746Z,852.00
2023-04-21T05:00:00.731Z,845.00
2023-04-21T05:01:00.770Z,863.00
2023-04-21T05:02:00.879Z,901.00
2023-04-21T05:03:01.034Z,1143.00
2023-04-21T05:04:01.117Z,1083.00
2023-04-21T05:05:00.925Z,1078.00
2023-04-21T05:06:00.975Z,1094.00
2023-04-21T05:07:00.974Z,1018.00
2023-04-21T05:08:00.961Z,945.00
2023-04-21T05:09:00.994Z,946.00
2023-04-21T05:10:01.042Z,945.00
2023-04-21T05:11:01.041Z,943.00
2023-04-21T05:12:01.052Z,942.00
2023-04-21T05:13:01.058Z,931.00
2023-04-21T05:14:01.138Z,950.00
2023-04-21T05:15:01.141Z,930.00
2023-04-21T05:16:01.163Z,914.00
2023-04-21T05:17:01.259Z,921.00
2023-04-21T05:18:01.266Z,920.00
2023-04-21T05:19:01.214Z,900.00
2023-04-21T05:20:01.285Z,901.00
2023-04-21T05:21:01.319Z,891.00
2023-04-21T05:22:01.340Z,883.00
2023-04-21T05:23:01.362Z,873.00
2023-04-21T05:24:01.404Z,870.00
2023-04-21T05:25:01.435Z,856.00
2023-04-21T05:26:04.123Z,872.00
2023-04-21T05:27:01.442Z,881.00
2023-04-21T05:28:01.428Z,864.00
2023-04-21T05:29:01.403Z,840.00
2023-04-21T05:30:01.448Z,848.00
2023-04-21T05:31:01.421Z,850.00
2023-04-21T05:32:01.517Z,846.00
2023-04-21T05:33:01.416Z,848.00
2023-04-21T05:34:01.387Z,840.00
2023-04-21T05:35:01.394Z,828.00
2023-04-21T05:36:01.402Z,840.00
2023-04-21T05:37:01.368Z,817.00
2023-04-21T05:38:01.382Z,821.00
2023-04-21T05:39:01.330Z,818.00
2023-04-21T05:40:01.392Z,812.00
2023-04-21T05:41:01.370Z,826.00
2023-04-21T05:42:01.376Z,821.00
2023-04-21T05:43:01.329Z,832.00
2023-04-21T05:44:01.348Z,853.00
2023-04-21T05:45:01.349Z,849.00
2023-04-21T05:46:01.429Z,849.00
2023-04-21T05:47:01.316Z,853.00
2023-04-21T05:48:01.374Z,912.00
2023-04-21T05:49:01.295Z,922.00
2023-04-21T05:50:01.251Z,917.00
2023-04-21T05:51:01.292Z,916.00
2023-04-21T05:52:01.331Z,995.00
2023-04-21T05:53:01.294Z,1042.00
2023-04-21T05:54:01.251Z,1073.00
2023-04-21T05:55:01.238Z,1099.00
2023-04-21T05:56:01.222Z,1099.00
2023-04-21T05:57:01.235Z,1148.00
2023-04-21T05:58:01.240Z,1185.00
2023-04-21T05:59:01.220Z,1162.00
2023-04-21T06:00:01.200Z,1123.00
2023-04-21T06:01:01.210Z,1120.00
2023-04-21T06:02:01.241Z,1134.00
2023-04-21T06:03:01.358Z,1155.00
2023-04-21T06:04:01.511Z,1164.00
2023-04-21T06:05:01.671Z,1170.00
2023-04-21T06:06:01.213Z,1196.00
2023-04-21T06:07:01.147Z,1198.00
2023-04-21T06:08:01.206Z,1189.00
2023-04-21T06:09:01.153Z,1185.00
2023-04-21T06:10:01.155Z,1173.00
2023-04-21T06:11:01.151Z,1113.00
2023-04-21T06:12:01.233Z,1083.00
2023-04-21T06:13:01.257Z,1087.00
2023-04-21T06:14:01.267Z,1069.00
2023-04-21T06:15:01.315Z,1041.00
2023-04-21T06:16:01.445Z,1026.00
2023-04-21T06:17:01.356Z,1016.00
2023-04-21T06:18:01.474Z,996.00
2023-04-21T06:19:01.380Z,987.00
2023-04-21T06:20:02.236Z,976.00
2023-04-21T06:21:01.392Z,964.00
2023-04-21T06:22:01.421Z,947.00
2023-04-21T06:23:01.441Z,945.00
2023-04-21T06:24:01.449Z,936.00
2023-04-21T06:25:01.447Z,917.00
2023-04-21T06:26:01.488Z,891.00
2023-04-21T06:27:01.546Z,896.00
2023-04-21T06:28:01.548Z,891.00
2023-04-21T06:29:01.552Z,877.00
2023-04-21T06:30:01.584Z,886.00
2023-04-21T06:31:01.629Z,882.00
2023-04-21T06:32:01.756Z,877.00
2023-04-21T06:33:01.712Z,881.00
2023-04-21T06:34:01.682Z,862.00
2023-04-21T06:35:01.758Z,847.00
2023-04-21T06:36:01.814Z,828.00
2023-04-21T06:37:01.810Z,833.00
2023-04-21T06:38:01.822Z,797.00
2023-04-21T06:39:01.899Z,810.00
2023-04-21T06:40:01.882Z,790.00
2023-04-21T06:41:01.925Z,779.00
2023-04-21T06:42:01.946Z,758.00
2023-04-21T06:43:02.000Z,770.00
2023-04-21T06:44:02.028Z,745.00
2023-04-21T06:45:02.080Z,765.00
2023-04-21T06:46:02.126Z,749.00
2023-04-21T06:47:02.186Z,739.00
2023-04-21T06:48:02.226Z,761.00
2023-04-21T06:49:02.223Z,763.00
2023-04-21T06:50:02.273Z,772.00
2023-04-21T06:51:02.314Z,754.00
2023-04-21T06:52:02.354Z,791.00
2023-04-21T06:53:02.438Z,796.00
2023-04-21T06:54:02.443Z,804.00
2023-04-21T06:55:02.468Z,840.00
2023-04-21T06:56:02.537Z,864.00
2023-04-21T06:57:02.580Z,821.00
2023-04-21T06:58:02.585Z,822.00
2023-04-21T06:59:02.639Z,856.00
2023-04-21T07:00:02.675Z,856.00
2023-04-21T07:01:02.661Z,901.00
2023-04-21T07:02:02.772Z,940.00
2023-04-21T07:03:02.765Z,1029.00
2023-04-21T07:04:02.805Z,1058.00
2023-04-21T07:05:02.813Z,1106.00
2023-04-21T07:06:02.846Z,1154.00
2023-04-21T07:07:03.494Z,1230.00
2023-04-21T07:08:02.877Z,1281.00
2023-04-21T07:09:02.927Z,1361.00
2023-04-21T07:10:02.924Z,1428.00
2023-04-21T07:11:02.935Z,1178.00
2023-04-21T07:12:03.046Z,933.00
2023-04-21T07:13:03.061Z,839.00
2023-04-21T07:14:03.086Z,823.00
2023-04-21T07:15:03.108Z,817.00
2023-04-21T07:16:03.129Z,816.00
2023-04-21T07:17:03.258Z,796.00
2023-04-21T07:18:03.242Z,742.00
2023-04-21T07:19:03.248Z,704.00
2023-04-21T07:20:03.315Z,703.00
2023-04-21T07:21:03.306Z,705.00
2023-04-21T07:22:03.330Z,752.00
2023-04-21T07:23:03.326Z,777.00
2023-04-21T07:24:03.340Z,834.00
2023-04-21T07:25:03.384Z,860.00
2023-04-21T07:26:03.350Z,884.00
2023-04-21T07:27:03.428Z,916.00
2023-04-21T07:28:03.506Z,903.00
2023-04-21T07:29:03.534Z,952.00
2023-04-21T07:30:03.534Z,995.00
2023-04-21T07:31:03.878Z,1021.00
2023-04-21T07:32:03.588Z,1047.00
2023-04-21T07:33:03.668Z,1094.00
2023-04-21T07:34:03.685Z,1124.00
2023-04-21T07:35:03.673Z,1182.00
2023-04-21T07:36:03.726Z,1237.00
2023-04-21T07:37:03.773Z,1309.00
2023-04-21T07:38:03.782Z,1484.00
2023-04-21T07:39:03.783Z,1505.00
2023-04-21T07:40:03.833Z,1479.00
2023-04-21T07:41:03.902Z,1528.00
2023-04-21T07:42:03.925Z,1611.00
2023-04-21T07:43:04.252Z,1696.00
2023-04-21T07:44:04.313Z,1750.00
2023-04-21T07:45:04.216Z,1764.00
2023-04-21T07:46:04.096Z,1792.00
2023-04-21T07:47:04.096Z,1853.00
2023-04-21T07:48:04.178Z,1858.00
2023-04-21T07:49:04.306Z,1887.00
2023-04-21T07:50:04.171Z,1888.00
2023-04-21T07:51:04.143Z,1900.00
2023-04-21T07:52:04.181Z,1931.00
2023-04-21T07:53:04.200Z,1966.00
2023-04-21T07:54:04.226Z,1954.00
2023-04-21T07:55:04.258Z,1961.00
2023-04-21T07:56:04.256Z,1974.00
2023-04-21T07:57:04.290Z,1957.00
2023-04-21T07:58:04.278Z,1953.00
2023-04-21T07:59:04.342Z,1965.00
2023-04-21T08:00:04.339Z,1971.00
2023-04-21T08:01:04.348Z,1964.00
2023-04-21T08:02:04.383Z,1966.00
2023-04-21T08:03:04.436Z,1970.00
2023-04-21T08:04:04.482Z,1985.00
2023-04-21T08:05:04.532Z,1966.00
2023-04-21T08:06:04.890Z,1994.00
2023-04-21T08:07:04.558Z,1999.00
2023-04-21T08:08:04.962Z,2001.00
2023-04-21T08:09:04.457Z,1979.00
2023-04-21T08:10:04.508Z,1996.00
2023-04-21T08:11:04.483Z,2036.00
2023-04-21T08:12:04.539Z,2035.00
2023-04-21T08:13:04.523Z,2049.00
2023-04-21T08:14:04.563Z,2046.00
2023-04-21T08:15:04.558Z,2072.00
2023-04-21T08:16:04.614Z,2041.00
2023-04-21T08:17:04.628Z,2042.00
2023-04-21T08:18:04.759Z,2063.00
2023-04-21T08:19:04.710Z,2056.00
2023-04-21T08:20:04.754Z,2045.00
2023-04-21T08:21:04.859Z,2045.00
2023-04-21T08:22:04.824Z,2038.00
2023-04-21T08:23:04.944Z,2046.00
2023-04-21T08:24:04.942Z,2047.00
2023-04-21T08:25:04.991Z,2056.00
2023-04-21T08:26:05.228Z,2044.00
2023-04-21T08:27:05.073Z,2057.00
2023-04-21T08:28:05.129Z,2058.00
2023-04-21T08:29:05.159Z,2060.00
2023-04-21T08:30:05.200Z,2059.00
2023-04-21T08:31:05.292Z,2057.00
2023-04-21T08:32:05.456Z,2065.00
2023-04-21T08:33:05.374Z,2061.00
2023-04-21T08:34:05.440Z,2062.00
2023-04-21T08:35:05.501Z,2069.00
2023-04-21T08:36:12.223Z,2074.00
2023-04-21T08:37:06.515Z,2075.00
2023-04-21T08:38:05.489Z,2076.00
2023-04-21T08:39:05.539Z,2080.00
2023-04-21T08:40:05.470Z,2080.00
2023-04-21T08:41:05.487Z,2081.00
2023-04-21T08:42:05.466Z,2085.00
2023-04-21T08:43:05.464Z,2121.00
2023-04-21T08:44:05.470Z,2150.00
2023-04-21T08:45:05.424Z,2090.00
2023-04-21T08:46:05.494Z,2021.00
2023-04-21T08:47:05.470Z,2035.00
2023-04-21T08:48:05.539Z,2061.00
2023-04-21T08:49:12.605Z,1852.00
2023-04-21T08:50:05.527Z,1855.00
2023-04-21T08:51:05.534Z,1652.00
2023-04-21T08:52:05.545Z,1570.00
2023-04-21T08:53:05.527Z,1481.00
2023-04-21T08:54:05.541Z,1364.00
2023-04-21T08:55:05.501Z,1316.00
2023-04-21T08:56:11.257Z,1222.00
2023-04-21T08:57:15.458Z,1195.00
2023-04-21T08:58:06.507Z,1224.00
2023-04-21T08:59:05.521Z,1237.00
2023-04-21T09:00:07.945Z,1261.00
2023-04-21T09:01:05.501Z,1228.00
2023-04-21T09:02:05.536Z,1253.00
2023-04-21T09:03:10.675Z,1309.00
2023-04-21T09:04:06.602Z,1234.00
2023-04-21T09:05:05.648Z,1274.00
2023-04-21T09:06:05.843Z,1345.00
2023-04-21T09:07:05.437Z,1466.00
2023-04-21T09:08:05.416Z,1631.00
2023-04-21T09:09:05.382Z,1654.00
2023-04-21T09:10:05.424Z,1676.00
2023-04-21T09:11:05.399Z,1732.00
2023-04-21T09:12:05.372Z,1785.00
2023-04-21T09:13:05.383Z,1785.00
2023-04-21T09:14:05.356Z,1796.00
2023-04-21T09:15:05.375Z,1824.00
2023-04-21T09:16:08.311Z,1855.00
2023-04-21T09:17:05.493Z,1886.00
2023-04-21T09:18:05.403Z,1916.00
2023-04-21T09:19:05.363Z,1927.00
2023-04-21T09:20:05.345Z,1952.00
2023-04-21T09:21:06.282Z,1967.00
2023-04-21T09:22:05.328Z,1987.00
2023-04-21T09:23:05.320Z,2008.00
2023-04-21T09:24:05.296Z,2031.00
2023-04-21T09:25:05.330Z,2049.00
2023-04-21T09:26:05.289Z,2050.00
2023-04-21T09:27:05.285Z,2076.00
2023-04-21T09:28:05.260Z,2115.00
2023-04-21T09:29:05.271Z,2127.00
2023-04-21T09:30:05.260Z,2132.00
2023-04-21T09:31:05.255Z,2149.00
2023-04-21T09:32:05.280Z,2163.00
2023-04-21T09:33:13.313Z,2181.00
2023-04-21T09:34:06.239Z,2183.00
2023-04-21T09:35:05.238Z,2189.00
2023-04-21T09:36:05.230Z,2207.00
2023-04-21T09:37:05.232Z,2249.00
2023-04-21T09:38:05.228Z,2286.00
2023-04-21T09:40:05.705Z,2381.00
2023-04-21T09:41:05.174Z,2418.00
2023-04-21T09:42:05.804Z,2468.00
2023-04-21T09:43:05.188Z,2482.00
2023-04-21T09:44:05.229Z,2428.00
2023-04-21T09:46:05.240Z,2362.00
2023-04-21T09:47:05.118Z,2218.00
2023-04-21T09:48:05.193Z,2152.00
2023-04-21T09:49:05.122Z,2107.00
2023-04-21T09:50:05.143Z,2056.00
2023-04-21T09:51:24.278Z,2035.00
2023-04-21T09:52:18.708Z,2038.00
2023-04-21T09:53:06.119Z,2038.00
2023-04-21T09:54:05.707Z,2045.00
2023-04-21T09:55:05.358Z,2037.00
2023-04-21T09:56:05.374Z,2037.00
2023-04-21T09:57:05.383Z,2027.00
2023-04-21T09:58:05.442Z,2006.00
2023-04-21T09:59:05.473Z,1992.00
2023-04-21T10:00:05.474Z,2004.00
2023-04-21T10:01:05.550Z,1986.00
2023-04-21T10:02:05.745Z,1974.00
2023-04-21T10:03:05.906Z,1976.00
2023-04-21T10:04:05.777Z,1956.00
2023-04-21T10:05:05.805Z,1965.00
2023-04-21T10:06:05.800Z,1975.00
2023-04-21T10:07:05.857Z,1960.00
2023-04-21T10:08:05.848Z,1947.00
2023-04-21T10:09:05.875Z,1950.00
2023-04-21T10:10:05.905Z,1938.00
2023-04-21T10:11:05.970Z,1930.00
2023-04-21T10:12:07.809Z,1926.00
2023-04-21T10:13:06.025Z,1937.00
2023-04-21T10:14:05.978Z,1925.00
2023-04-21T10:15:05.985Z,1918.00
2023-04-21T10:16:06.034Z,1913.00
2023-04-21T10:17:05.976Z,1893.00
2023-04-21T10:18:06.105Z,1916.00
2023-04-21T10:19:05.964Z,1900.00
2023-04-21T10:20:05.928Z,1894.00
2023-04-21T10:21:05.928Z,1891.00
2023-04-21T10:22:05.935Z,1900.00
2023-04-21T10:23:05.951Z,1896.00
2023-04-21T10:24:05.916Z,1888.00
2023-04-21T10:25:05.921Z,1877.00
2023-04-21T10:26:05.891Z,1868.00
2023-04-21T10:27:05.903Z,1879.00
2023-04-21T10:28:05.923Z,1863.00
2023-04-21T10:29:05.896Z,1847.00
2023-04-21T10:30:05.851Z,1853.00
2023-04-21T10:31:05.908Z,1850.00
2023-04-21T10:32:08.512Z,1840.00
2023-04-21T10:33:06.135Z,1841.00
2023-04-21T10:34:05.868Z,1841.00
2023-04-21T10:35:05.830Z,1830.00
2023-04-21T10:36:05.841Z,1821.00
2023-04-21T10:37:05.846Z,1821.00
2023-04-21T10:38:07.028Z,1818.00
2023-04-21T10:39:05.804Z,1825.00
2023-04-21T10:40:05.806Z,1802.00
2023-04-21T10:41:05.781Z,1801.00
2023-04-21T10:42:05.802Z,1787.00
2023-04-21T10:43:05.788Z,1782.00
2023-04-21T10:44:05.822Z,1774.00
2023-04-21T10:45:05.842Z,1766.00
2023-04-21T10:46:05.841Z,1754.00
2023-04-21T10:47:05.880Z,1744.00
2023-04-21T10:48:05.892Z,1739.00
2023-04-21T10:49:05.906Z,1711.00
2023-04-21T10:50:05.920Z,1677.00
2023-04-21T10:51:05.977Z,1403.00
2023-04-21T10:52:06.015Z,879.00
2023-04-21T10:53:05.947Z,615.00
2023-04-21T10:54:05.977Z,673.00
2023-04-21T10:55:06.028Z,585.00
2023-04-21T10:56:05.992Z,478.00
2023-04-21T10:57:06.001Z,542.00
2023-04-21T10:58:06.057Z,520.00
2023-04-21T10:59:06.102Z,532.00
2023-04-21T11:00:06.113Z,447.00
2023-04-21T11:01:06.166Z,425.00
2023-04-21T11:02:06.198Z,542.00
2023-04-21T11:03:06.321Z,652.00
2023-04-21T11:04:06.392Z,749.00
2023-04-21T11:05:06.252Z,932.00
2023-04-21T11:06:06.239Z,1024.00
2023-04-21T11:07:06.274Z,1046.00
2023-04-21T11:08:06.297Z,1182.00
2023-04-21T11:09:06.267Z,1252.00
2023-04-21T11:10:06.307Z,1265.00
2023-04-21T11:11:06.317Z,1361.00
2023-04-21T11:12:06.338Z,1421.00
2023-04-21T11:13:06.319Z,1513.00
2023-04-21T11:14:06.371Z,1607.00
2023-04-21T11:15:06.379Z,1680.00
2023-04-21T11:16:06.447Z,1730.00
2023-04-21T11:17:06.581Z,1753.00
2023-04-21T11:18:06.550Z,1846.00
2023-04-21T11:19:06.637Z,1897.00
2023-04-21T11:20:06.780Z,1949.00
2023-04-21T11:21:06.682Z,2019.00
2023-04-21T11:22:06.766Z,2067.00
2023-04-21T11:23:06.805Z,2103.00
2023-04-21T11:24:06.836Z,2239.00
2023-04-21T11:25:06.925Z,2231.00
2023-04-21T11:26:06.931Z,2252.00
2023-04-21T11:27:07.004Z,2184.00
2023-04-21T11:28:07.016Z,2228.00
2023-04-21T11:29:07.037Z,2215.00
2023-04-21T11:30:07.073Z,2275.00
2023-04-21T11:31:07.203Z,2352.00
2023-04-21T11:32:07.182Z,2319.00
2023-04-21T11:33:07.280Z,2315.00
2023-04-21T11:34:07.312Z,2319.00
2023-04-21T11:35:07.328Z,2328.00
2023-04-21T11:36:07.397Z,2398.00
2023-04-21T11:37:07.428Z,2406.00
2023-04-21T11:38:07.479Z,2349.00
2023-04-21T11:39:07.516Z,2366.00
2023-04-21T11:40:07.542Z,2358.00
2023-04-21T11:41:07.640Z,2081.00
2023-04-21T11:42:07.618Z,1943.00
2023-04-21T11:43:07.680Z,1733.00
2023-04-21T11:44:08.599Z,1795.00
2023-04-21T11:45:07.731Z,1654.00
2023-04-21T11:46:07.826Z,1888.00
2023-04-21T11:47:07.831Z,1784.00
2023-04-21T11:48:07.911Z,2029.00
2023-04-21T11:49:07.895Z,1866.00
2023-04-21T11:50:07.996Z,1636.00
2023-04-21T11:51:07.949Z,1480.00
2023-04-21T11:52:08.007Z,1448.00
2023-04-21T11:53:08.052Z,1561.00
2023-04-21T11:54:08.099Z,1494.00
2023-04-21T11:55:08.123Z,1270.00
2023-04-21T11:56:08.123Z,1319.00
2023-04-21T11:57:08.127Z,1272.00
2023-04-21T11:58:08.202Z,1210.00
2023-04-21T11:59:08.196Z,1001.00
2023-04-21T12:00:08.198Z,801.00
2023-04-21T12:01:08.187Z,688.00
2023-04-21T12:02:08.198Z,659.00
2023-04-21T12:03:08.591Z,566.00
2023-04-21T12:04:08.585Z,623.00
2023-04-21T12:05:08.463Z,595.00
2023-04-21T12:06:08.333Z,567.00
2023-04-21T12:07:08.300Z,572.00
2023-04-21T12:08:08.343Z,597.00
2023-04-21T12:09:08.349Z,564.00
2023-04-21T12:10:08.389Z,553.00
2023-04-21T12:11:08.501Z,536.00
2023-04-21T12:12:08.423Z,499.00
2023-04-21T12:13:08.457Z,519.00
2023-04-21T12:14:08.482Z,515.00
2023-04-21T12:15:08.501Z,500.00
2023-04-21T12:16:08.558Z,561.00
2023-04-21T12:17:08.523Z,487.00
2023-04-21T12:18:08.897Z,539.00
2023-04-21T12:19:08.586Z,511.00
2023-04-21T12:20:08.604Z,573.00